createdAt,value
2023-05-22T00:01:21.305Z,14.60
2023-05-22T00:03:50.870Z,14.60
2023-05-22T00:06:19.104Z,14.60
2023-05-22T00:08:47.192Z,14.60
2023-05-22T00:11:15.409Z,14.60
2023-05-22T00:13:43.456Z,15.00
2023-05-22T00:16:11.641Z,14.60
2023-05-22T00:18:42.918Z,14.60
2023-05-22T00:21:13.640Z,14.60
2023-05-22T00:23:42.943Z,14.70
2023-05-22T00:26:11.156Z,14.70
2023-05-22T00:28:39.229Z,14.80
2023-05-22T00:31:07.406Z,14.70
2023-05-22T00:33:35.602Z,15.10
2023-05-22T00:36:06.452Z,14.80
2023-05-22T00:38:37.803Z,14.70
2023-05-22T00:41:07.208Z,14.70
2023-05-22T00:43:36.152Z,14.70
2023-05-22T00:46:04.426Z,14.80
2023-05-22T00:48:32.588Z,14.70
2023-05-22T00:51:01.786Z,14.60
2023-05-22T00:53:32.523Z,14.60
2023-05-22T00:56:01.499Z,14.80
2023-05-22T00:58:29.621Z,14.50
2023-05-22T01:00:57.896Z,14.70
2023-05-22T01:03:28.412Z,14.60
2023-05-22T01:05:56.911Z,14.60
2023-05-22T01:08:25.138Z,14.60
2023-05-22T01:11:02.961Z,14.60
2023-05-22T01:13:35.754Z,14.60
2023-05-22T01:16:12.058Z,14.60
2023-05-22T01:18:46.463Z,14.60
2023-05-22T01:21:23.164Z,14.50
2023-05-22T01:24:25.690Z,14.60
2023-05-22T01:27:17.699Z,14.60
2023-05-22T01:29:52.881Z,14.70
2023-05-22T01:32:24.335Z,14.50
2023-05-22T01:34:55.359Z,14.70
2023-05-22T01:37:24.361Z,14.50
2023-05-22T01:39:53.310Z,14.50
2023-05-22T01:42:22.016Z,14.70
2023-05-22T01:44:50.288Z,14.80
2023-05-22T01:47:18.338Z,14.60
2023-05-22T01:49:48.364Z,14.70
2023-05-22T01:52:26.729Z,14.60
2023-05-22T01:55:03.713Z,14.60
2023-05-22T01:57:36.828Z,14.70
2023-05-22T02:00:10.996Z,14.60
2023-05-22T02:02:41.199Z,14.60
2023-05-22T02:05:13.733Z,14.60
2023-05-22T02:07:43.743Z,14.70
2023-05-22T02:10:13.179Z,14.60
2023-05-22T02:12:42.202Z,14.80
2023-05-22T02:15:10.873Z,14.60
2023-05-22T02:17:41.419Z,14.50
2023-05-22T02:20:15.470Z,14.40
2023-05-22T02:22:44.790Z,14.40
2023-05-22T02:25:14.578Z,14.40
2023-05-22T02:27:43.818Z,14.40
2023-05-22T02:30:13.005Z,14.50
2023-05-22T02:32:42.089Z,14.40
2023-05-22T02:35:12.115Z,14.40
2023-05-22T02:37:40.400Z,14.40
2023-05-22T02:40:09.989Z,14.70
2023-05-22T02:42:38.176Z,14.50
2023-05-22T02:45:08.427Z,14.40
2023-05-22T02:47:36.697Z,14.40
2023-05-22T02:50:05.064Z,14.50
2023-05-22T02:52:35.232Z,14.50
2023-05-22T02:55:04.346Z,14.40
2023-05-22T02:57:32.560Z,14.40
2023-05-22T03:00:01.589Z,14.50
2023-05-22T03:02:30.216Z,14.70
2023-05-22T03:04:59.652Z,14.60
2023-05-22T03:07:29.675Z,14.80
2023-05-22T03:09:59.279Z,14.50
2023-05-22T03:12:27.265Z,14.60
2023-05-22T03:14:55.423Z,14.40
2023-05-22T03:17:23.448Z,14.30
2023-05-22T03:19:51.570Z,14.40
2023-05-22T03:22:19.780Z,14.50
2023-05-22T03:24:47.905Z,14.30
2023-05-22T03:27:18.086Z,14.30
2023-05-22T03:29:46.297Z,14.40
2023-05-22T03:32:14.560Z,14.60
2023-05-22T03:34:43.549Z,14.50
2023-05-22T03:37:11.758Z,14.60
2023-05-22T03:39:40.547Z,14.70
2023-05-22T03:42:08.716Z,14.70
2023-05-22T03:44:38.108Z,14.60
2023-05-22T03:47:06.691Z,14.60
2023-05-22T03:49:34.857Z,14.60
2023-05-22T03:52:03.544Z,14.60
2023-05-22T03:54:31.583Z,14.60
2023-05-22T03:56:59.826Z,14.80
2023-05-22T03:59:27.847Z,14.80
2023-05-22T04:02:01.277Z,14.70
2023-05-22T04:04:29.649Z,14.90
2023-05-22T04:06:58.087Z,15.00
2023-05-22T04:09:28.517Z,14.80
2023-05-22T04:11:56.818Z,14.80
2023-05-22T04:14:24.904Z,15.00
2023-05-22T04:16:53.081Z,14.90
2023-05-22T04:19:22.651Z,14.90
2023-05-22T04:21:51.289Z,15.10
2023-05-22T04:24:19.815Z,14.90
2023-05-22T04:26:47.904Z,14.90
2023-05-22T04:29:16.558Z,14.70
2023-05-22T04:31:44.708Z,14.90
2023-05-22T04:34:13.727Z,14.90
2023-05-22T04:36:45.471Z,14.90
2023-05-22T04:39:14.364Z,15.00
2023-05-22T04:41:42.887Z,15.00
2023-05-22T04:44:10.870Z,15.00
2023-05-22T04:46:39.681Z,14.90
2023-05-22T04:49:08.568Z,14.90
2023-05-22T04:51:36.919Z,14.80
2023-05-22T04:54:06.656Z,14.70
2023-05-22T04:56:37.216Z,14.80
2023-05-22T04:59:09.142Z,14.80
2023-05-22T05:01:38.245Z,14.80
2023-05-22T05:04:06.795Z,14.80
2023-05-22T05:06:36.069Z,14.80
2023-05-22T05:09:04.367Z,14.90
2023-05-22T05:11:36.888Z,15.00
2023-05-22T05:14:05.217Z,15.00
2023-05-22T05:16:33.798Z,15.00
2023-05-22T05:19:02.410Z,15.00
2023-05-22T05:21:31.574Z,15.10
2023-05-22T05:23:59.857Z,15.10
2023-05-22T05:26:28.301Z,15.50
2023-05-22T05:28:58.137Z,15.00
2023-05-22T05:31:26.316Z,15.30
2023-05-22T05:33:56.743Z,15.30
2023-05-22T05:36:25.386Z,15.20
2023-05-22T05:38:54.276Z,15.20
2023-05-22T05:41:23.042Z,15.20
2023-05-22T05:43:52.245Z,15.20
2023-05-22T05:46:22.766Z,15.20
2023-05-22T05:48:50.942Z,15.10
2023-05-22T05:51:19.157Z,15.20
2023-05-22T05:53:47.103Z,15.20
2023-05-22T05:56:15.582Z,15.30
2023-05-22T05:58:43.581Z,15.30
2023-05-22T06:01:11.871Z,15.30
2023-05-22T06:03:41.537Z,15.40
2023-05-22T06:06:09.729Z,15.50
2023-05-22T06:08:38.370Z,15.60
2023-05-22T06:11:06.544Z,15.70
2023-05-22T06:13:37.148Z,15.70
2023-05-22T06:16:06.735Z,15.80
2023-05-22T06:18:35.166Z,15.80
2023-05-22T06:21:04.982Z,16.00
2023-05-22T06:23:33.169Z,16.00
2023-05-22T06:26:01.645Z,16.10
2023-05-22T06:28:29.851Z,16.00
2023-05-22T06:30:58.201Z,16.00
2023-05-22T06:33:26.341Z,16.20
2023-05-22T06:35:55.499Z,16.00
2023-05-22T06:38:25.022Z,16.50
2023-05-22T06:40:54.166Z,16.20
2023-05-22T06:43:25.014Z,16.10
2023-05-22T06:45:53.220Z,16.20
2023-05-22T06:48:21.374Z,16.20
2023-05-22T06:50:49.568Z,16.30
2023-05-22T06:53:17.790Z,16.40
2023-05-22T06:55:47.542Z,16.50
2023-05-22T06:58:15.908Z,16.60
2023-05-22T07:00:44.027Z,16.60
2023-05-22T07:03:12.202Z,16.50
2023-05-22T07:05:40.607Z,16.80
2023-05-22T07:08:09.669Z,17.10
2023-05-22T07:10:37.998Z,16.90
2023-05-22T07:13:07.809Z,17.00
2023-05-22T07:15:36.185Z,17.10
2023-05-22T07:18:04.855Z,17.10
2023-05-22T07:20:33.186Z,17.30
2023-05-22T07:23:01.400Z,17.30
2023-05-22T07:25:29.424Z,17.40
2023-05-22T07:27:58.378Z,17.60
2023-05-22T07:30:27.951Z,17.70
2023-05-22T07:32:56.412Z,17.80
2023-05-22T07:35:24.608Z,17.90
2023-05-22T07:37:52.693Z,18.00
2023-05-22T07:40:21.278Z,18.10
2023-05-22T07:42:49.241Z,18.20
2023-05-22T07:45:17.537Z,18.30
2023-05-22T07:47:47.262Z,18.40
2023-05-22T07:50:15.805Z,18.40
2023-05-22T07:52:43.889Z,18.50
2023-05-22T07:55:12.039Z,18.50
2023-05-22T07:57:40.784Z,18.60
2023-05-22T08:00:13.737Z,18.60
2023-05-22T08:02:42.428Z,18.70
2023-05-22T08:05:12.721Z,18.80
2023-05-22T08:07:40.920Z,18.80
2023-05-22T08:10:16.102Z,19.10
2023-05-22T08:12:44.339Z,18.90
2023-05-22T08:15:13.307Z,18.90
2023-05-22T08:17:41.539Z,18.90
2023-05-22T08:20:13.240Z,19.00
2023-05-22T08:22:41.927Z,18.90
2023-05-22T08:25:10.994Z,19.00
2023-05-22T08:27:39.640Z,19.10
2023-05-22T08:30:09.085Z,19.20
2023-05-22T08:32:37.109Z,19.30
2023-05-22T08:35:05.487Z,19.40
2023-05-22T08:37:35.206Z,19.40
2023-05-22T08:40:04.333Z,19.70
2023-05-22T08:42:32.532Z,19.70
2023-05-22T08:45:01.149Z,19.80
2023-05-22T08:47:29.561Z,19.90
2023-05-22T08:49:59.544Z,20.00
2023-05-22T08:52:34.219Z,20.20
2023-05-22T08:55:06.264Z,20.30
2023-05-22T08:57:37.508Z,20.50
2023-05-22T09:00:07.930Z,20.60
2023-05-22T09:02:36.403Z,20.90
2023-05-22T09:05:05.723Z,21.00
2023-05-22T09:07:33.978Z,21.20
2023-05-22T09:10:05.430Z,21.40
2023-05-22T09:12:33.960Z,21.40
2023-05-22T09:15:10.184Z,21.80
2023-05-22T09:17:41.001Z,21.90
2023-05-22T09:20:13.364Z,22.10
2023-05-22T09:22:41.649Z,22.30
2023-05-22T09:25:22.178Z,22.30
2023-05-22T09:27:54.565Z,22.50
2023-05-22T09:30:22.775Z,22.70
2023-05-22T09:32:51.133Z,22.70
2023-05-22T09:35:20.729Z,22.80
2023-05-22T09:37:52.058Z,23.10
2023-05-22T09:40:22.991Z,23.00
2023-05-22T09:42:51.208Z,23.10
2023-05-22T09:45:22.835Z,23.30
2023-05-22T09:47:53.903Z,23.30
2023-05-22T09:50:22.094Z,23.40
2023-05-22T09:52:52.154Z,23.50
2023-05-22T09:55:24.024Z,23.80
2023-05-22T09:57:53.941Z,24.10
2023-05-22T10:00:24.203Z,24.20
2023-05-22T10:02:58.805Z,24.20
2023-05-22T10:05:32.706Z,24.10
2023-05-22T10:08:08.891Z,24.10
2023-05-22T10:10:40.263Z,24.20
2023-05-22T10:13:09.279Z,24.00
2023-05-22T10:15:37.913Z,24.10
2023-05-22T10:18:07.713Z,24.10
2023-05-22T10:20:36.338Z,23.70
2023-05-22T10:23:04.740Z,23.20
2023-05-22T10:25:33.802Z,22.90
2023-05-22T10:28:03.990Z,22.70
2023-05-22T10:30:37.772Z,22.60
2023-05-22T10:33:12.954Z,22.60
2023-05-22T10:35:47.120Z,22.60
2023-05-22T10:38:40.894Z,22.60
2023-05-22T10:41:09.380Z,22.60
2023-05-22T10:43:42.934Z,22.50
2023-05-22T10:46:13.978Z,22.50
2023-05-22T10:48:45.534Z,22.50
2023-05-22T10:51:15.136Z,22.60
2023-05-22T10:53:45.234Z,22.70
2023-05-22T10:56:14.575Z,22.70
2023-05-22T10:58:56.464Z,22.70
2023-05-22T11:01:27.573Z,22.80
2023-05-22T11:03:57.600Z,22.90
2023-05-22T11:06:32.336Z,22.90
2023-05-22T11:09:00.817Z,23.00
2023-05-22T11:11:29.356Z,23.00
2023-05-22T11:14:04.617Z,23.20
2023-05-22T11:16:34.955Z,23.30
2023-05-22T11:19:21.978Z,23.40
2023-05-22T11:21:51.835Z,23.60
2023-05-22T11:24:20.184Z,23.60
2023-05-22T11:27:02.964Z,23.70
2023-05-22T11:29:33.295Z,23.80
2023-05-22T11:32:02.992Z,23.80
2023-05-22T11:34:31.100Z,23.80
2023-05-22T11:37:02.020Z,23.90
2023-05-22T11:41:08.000Z,23.70
2023-05-22T11:51:23.757Z,23.90
2023-05-22T11:54:06.623Z,23.90
2023-05-22T11:57:01.251Z,23.90
2023-05-22T11:59:36.353Z,23.90
2023-05-22T12:02:04.701Z,24.00
2023-05-22T12:04:34.871Z,23.90
2023-05-22T12:07:04.948Z,23.80
2023-05-22T12:09:34.207Z,23.90
2023-05-22T12:12:02.606Z,24.10
2023-05-22T12:14:32.153Z,24.20
2023-05-22T12:17:01.266Z,24.10
2023-05-22T12:19:29.865Z,24.00
2023-05-22T12:21:58.493Z,23.90
2023-05-22T12:24:28.572Z,23.80
2023-05-22T12:26:57.522Z,23.80
2023-05-22T12:29:25.940Z,23.70
2023-05-22T12:31:54.176Z,23.60
2023-05-22T12:34:23.940Z,23.60
2023-05-22T12:36:52.562Z,23.60
2023-05-22T12:39:21.403Z,23.50
2023-05-22T12:41:51.170Z,23.30
2023-05-22T12:44:19.331Z,23.30
2023-05-22T12:46:48.000Z,23.10
2023-05-22T12:49:16.453Z,23.10
2023-05-22T12:51:45.124Z,23.10
2023-05-22T12:54:14.861Z,22.90
2023-05-22T12:56:43.194Z,22.80
2023-05-22T12:59:12.661Z,22.90
2023-05-22T13:01:41.041Z,22.90
2023-05-22T13:04:09.467Z,22.90
2023-05-22T13:06:37.720Z,23.00
2023-05-22T13:09:06.298Z,22.90
2023-05-22T13:11:34.971Z,22.90
2023-05-22T13:14:03.367Z,22.90
2023-05-22T13:16:33.278Z,22.90
2023-05-22T13:19:03.575Z,22.80
2023-05-22T13:21:33.084Z,22.90
2023-05-22T13:24:01.404Z,23.00
2023-05-22T13:26:29.581Z,23.00
2023-05-22T13:28:58.004Z,23.20
2023-05-22T13:31:26.451Z,23.30
2023-05-22T13:33:56.411Z,23.40
2023-05-22T13:36:24.720Z,23.40
2023-05-22T13:38:53.251Z,23.40
2023-05-22T13:41:21.401Z,23.50
2023-05-22T13:43:49.634Z,23.50
2023-05-22T13:46:18.396Z,23.40
2023-05-22T13:48:47.042Z,23.20
2023-05-22T13:51:16.869Z,23.20
2023-05-22T13:53:45.305Z,23.10
2023-05-22T13:56:13.596Z,22.90
2023-05-22T13:58:42.096Z,22.80
2023-05-22T14:01:10.913Z,22.60
2023-05-22T14:03:39.438Z,22.60
2023-05-22T14:06:08.047Z,22.50
2023-05-22T14:08:38.776Z,22.40
2023-05-22T14:11:08.800Z,22.50
2023-05-22T14:13:38.358Z,22.60
2023-05-22T14:16:06.824Z,22.70
2023-05-22T14:18:36.642Z,22.60
2023-05-22T14:21:05.344Z,22.50
2023-05-22T14:23:34.297Z,22.30
2023-05-22T14:26:04.132Z,22.30
2023-05-22T14:28:32.809Z,22.10
2023-05-22T14:31:01.335Z,22.20
2023-05-22T14:33:31.460Z,22.30
2023-05-22T14:35:59.643Z,22.40
2023-05-22T14:38:33.503Z,22.40
2023-05-22T14:41:03.508Z,22.40
2023-05-22T14:43:31.754Z,22.30
2023-05-22T14:46:00.141Z,22.30
2023-05-22T14:48:29.511Z,22.30
2023-05-22T14:50:57.890Z,22.30
2023-05-22T14:53:26.183Z,22.30
2023-05-22T14:55:54.301Z,22.30
2023-05-22T14:58:24.012Z,22.40
2023-05-22T15:00:52.777Z,22.30
2023-05-22T15:03:26.544Z,22.40
2023-05-22T15:06:08.662Z,22.30
2023-05-22T15:08:37.762Z,22.40
2023-05-22T15:11:08.523Z,22.50
2023-05-22T15:13:39.251Z,22.40
2023-05-22T15:16:08.203Z,22.30
2023-05-22T15:18:44.486Z,22.00
2023-05-22T15:21:13.051Z,21.90
2023-05-22T15:23:41.196Z,21.90
2023-05-22T15:26:12.444Z,21.90
2023-05-22T15:29:01.283Z,21.90
2023-05-22T15:31:30.208Z,21.90
2023-05-22T15:34:01.279Z,21.90
2023-05-22T15:36:30.583Z,21.90
2023-05-22T15:38:59.049Z,21.60
2023-05-22T15:41:27.396Z,21.50
2023-05-22T15:43:57.219Z,21.60
2023-05-22T15:46:25.454Z,21.60
2023-05-22T15:48:53.627Z,21.70
2023-05-22T15:51:22.290Z,22.00
2023-05-22T15:53:50.965Z,22.00
2023-05-22T15:56:19.240Z,22.10
2023-05-22T15:58:47.545Z,22.10
2023-05-22T16:01:18.315Z,22.20
2023-05-22T16:03:46.823Z,22.10
2023-05-22T16:06:15.025Z,22.00
2023-05-22T16:08:43.148Z,22.20
2023-05-22T16:11:11.264Z,22.40
2023-05-22T16:13:42.712Z,22.50
2023-05-22T16:16:13.888Z,22.50
2023-05-22T16:18:43.620Z,22.40
2023-05-22T16:21:11.681Z,22.20
2023-05-22T16:23:42.822Z,22.20
2023-05-22T16:26:11.217Z,22.10
2023-05-22T16:28:47.499Z,22.10
2023-05-22T16:32:35.459Z,22.00
2023-05-22T16:35:05.687Z,22.20
2023-05-22T16:37:34.812Z,22.20
2023-05-22T16:40:03.049Z,22.20
2023-05-22T16:42:31.299Z,22.00
2023-05-22T16:45:01.843Z,21.70
2023-05-22T16:47:30.365Z,21.60
2023-05-22T16:49:58.425Z,21.60
2023-05-22T16:52:28.110Z,21.50
2023-05-22T16:54:56.429Z,21.40
2023-05-22T16:57:27.046Z,21.30
2023-05-22T16:59:57.730Z,21.00
2023-05-22T17:02:26.327Z,20.90
2023-05-22T17:04:54.779Z,20.80
2023-05-22T17:07:23.546Z,20.70
2023-05-22T17:09:53.337Z,20.90
2023-05-22T17:12:23.283Z,21.00
2023-05-22T17:14:51.955Z,20.80
2023-05-22T17:17:20.447Z,20.80
2023-05-22T17:19:49.288Z,20.60
2023-05-22T17:22:20.270Z,20.40
2023-05-22T17:24:49.271Z,20.30
2023-05-22T17:27:34.471Z,20.30
2023-05-22T17:30:11.311Z,20.20
2023-05-22T17:32:40.023Z,20.40
2023-05-22T17:35:09.581Z,20.40
2023-05-22T17:37:37.903Z,20.50
2023-05-22T17:40:06.767Z,20.60
2023-05-22T17:42:36.879Z,20.40
2023-05-22T17:45:08.752Z,20.20
2023-05-22T17:47:36.946Z,20.20
2023-05-22T17:50:05.993Z,20.30
2023-05-22T17:52:34.306Z,20.30
2023-05-22T17:55:03.094Z,20.30
2023-05-22T17:57:34.275Z,20.20
2023-05-22T18:00:09.618Z,19.90
2023-05-22T18:02:37.968Z,19.70
2023-05-22T18:05:07.816Z,19.40
2023-05-22T18:07:41.931Z,19.30
2023-05-22T18:10:10.706Z,19.10
2023-05-22T18:12:39.609Z,19.00
2023-05-22T18:15:12.152Z,18.80
2023-05-22T18:17:41.519Z,18.70
2023-05-22T18:20:12.970Z,18.30
2023-05-22T18:22:41.763Z,18.50
2023-05-22T18:25:10.751Z,18.40
2023-05-22T18:27:39.446Z,18.10
2023-05-22T18:30:12.517Z,18.20
2023-05-22T18:32:40.979Z,18.20
2023-05-22T18:35:12.196Z,18.10
2023-05-22T18:37:40.792Z,18.10
2023-05-22T18:40:11.254Z,18.00
2023-05-22T18:42:39.390Z,18.00
2023-05-22T18:45:11.358Z,17.90
2023-05-22T18:47:39.650Z,17.90
2023-05-22T18:50:09.028Z,17.80
2023-05-22T18:52:37.277Z,17.60
2023-05-22T18:55:06.112Z,17.70
2023-05-22T18:57:36.937Z,17.80
2023-05-22T19:00:05.833Z,17.80
2023-05-22T19:02:35.611Z,17.70
2023-05-22T19:05:04.679Z,17.70
2023-05-22T19:07:42.725Z,17.60
2023-05-22T19:10:16.747Z,17.60
2023-05-22T19:13:01.539Z,17.60
2023-05-22T19:15:43.271Z,17.60
2023-05-22T19:18:24.879Z,17.60
2023-05-22T19:21:00.302Z,17.50
2023-05-22T19:23:33.197Z,17.40
2023-05-22T19:26:09.290Z,17.40
2023-05-22T19:28:37.743Z,17.30
2023-05-22T19:34:10.396Z,17.10
2023-05-22T19:45:49.197Z,16.40
2023-05-22T19:48:44.235Z,16.40
2023-05-22T19:51:40.676Z,16.10
2023-05-22T19:58:11.636Z,15.70
2023-05-22T20:03:57.205Z,15.40
2023-05-22T20:07:00.534Z,15.30
2023-05-22T20:09:36.128Z,15.60
2023-05-22T20:12:22.604Z,15.10
2023-05-22T20:15:03.645Z,15.00
2023-05-22T20:18:00.940Z,15.70
2023-05-22T20:20:46.360Z,15.10
2023-05-22T20:23:18.765Z,15.10
2023-05-22T20:25:52.394Z,15.10
2023-05-22T20:28:22.387Z,15.10
2023-05-22T20:31:00.023Z,15.20
2023-05-22T20:33:28.621Z,15.40
2023-05-22T20:35:58.628Z,15.00
2023-05-22T20:38:32.653Z,15.50
2023-05-22T20:41:02.853Z,14.60
2023-05-22T20:43:31.491Z,14.90
2023-05-22T20:46:25.017Z,14.90
2023-05-22T20:48:53.898Z,14.90
2023-05-22T20:51:26.109Z,14.90
2023-05-22T20:53:54.369Z,14.90
2023-05-22T20:56:24.084Z,15.20
2023-05-22T20:58:52.697Z,14.90
2023-05-22T21:01:21.148Z,14.90
2023-05-22T21:03:50.178Z,15.00
2023-05-22T21:06:18.730Z,16.30
2023-05-22T21:08:47.079Z,15.00
2023-05-22T21:11:15.935Z,15.10
2023-05-22T21:13:45.815Z,15.10
2023-05-22T21:16:14.541Z,15.10
2023-05-22T21:18:43.796Z,15.50
2023-05-22T21:21:12.311Z,15.50
2023-05-22T21:23:40.543Z,15.30
2023-05-22T21:26:09.122Z,15.30
2023-05-22T21:28:37.588Z,15.20
2023-05-22T21:31:09.032Z,15.30
2023-05-22T21:33:37.735Z,15.40
2023-05-22T21:36:06.567Z,15.40
2023-05-22T21:38:35.183Z,15.40
2023-05-22T21:41:03.531Z,15.70
2023-05-22T21:43:31.867Z,15.50
2023-05-22T21:46:00.049Z,15.40
2023-05-22T21:48:29.682Z,15.80
2023-05-22T21:50:57.843Z,15.40
2023-05-22T21:53:28.194Z,15.40
2023-05-22T21:55:56.463Z,15.40
2023-05-22T21:58:24.860Z,15.60
2023-05-22T22:00:53.297Z,15.50
2023-05-22T22:03:21.683Z,15.70
2023-05-22T22:05:52.522Z,15.40
2023-05-22T22:08:20.548Z,15.60
2023-05-22T22:10:49.744Z,15.50
2023-05-22T22:13:18.010Z,16.30
2023-05-22T22:15:49.457Z,16.40
2023-05-22T22:18:18.169Z,15.50
2023-05-22T22:20:55.399Z,15.20
2023-05-22T22:23:25.382Z,15.20
2023-05-22T22:25:53.657Z,15.00
2023-05-22T22:28:26.118Z,15.30
2023-05-22T22:30:55.265Z,14.90
2023-05-22T22:33:33.240Z,15.30
2023-05-22T22:36:01.930Z,14.50
2023-05-22T22:38:33.336Z,14.90
2023-05-22T22:41:09.347Z,15.10
2023-05-22T22:43:40.590Z,14.60
2023-05-22T22:46:10.020Z,14.50
2023-05-22T22:48:41.781Z,14.40
2023-05-22T22:51:10.832Z,14.40
2023-05-22T22:53:40.665Z,14.50
2023-05-22T22:56:09.033Z,14.30
2023-05-22T22:58:37.355Z,14.20
2023-05-22T23:01:07.876Z,14.20
2023-05-22T23:03:36.800Z,14.30
2023-05-22T23:06:05.247Z,14.20
2023-05-22T23:08:33.801Z,14.10
2023-05-22T23:11:03.644Z,14.40
2023-05-22T23:13:32.092Z,14.20
2023-05-22T23:16:00.338Z,15.00
2023-05-22T23:18:29.052Z,14.40
2023-05-22T23:20:57.317Z,14.50
2023-05-22T23:23:25.484Z,14.70
2023-05-22T23:25:54.007Z,14.20
2023-05-22T23:28:23.890Z,14.00
2023-05-22T23:30:52.956Z,14.10
2023-05-22T23:33:23.660Z,15.20
2023-05-22T23:35:52.171Z,13.70
2023-05-22T23:38:20.825Z,14.20
2023-05-22T23:40:49.080Z,14.80
2023-05-22T23:43:18.705Z,14.40
2023-05-22T23:45:50.311Z,13.90
2023-05-22T23:48:18.930Z,13.90
2023-05-22T23:50:47.317Z,13.90
2023-05-22T23:53:15.749Z,14.50
2023-05-22T23:55:44.045Z,14.50
2023-05-22T23:58:12.335Z,14.90
